sensor_id;sensor_type;location;lat;lon;timestamp;P1;durP1;ratioP1;P2;durP2;ratioP2
19006;SDS011;9636;47.382;8.480;2022-07-29T00:00:03;4.37;;;3.70;;
19006;SDS011;9636;47.382;8.480;2022-07-29T00:02:31;7.93;;;3.70;;
19006;SDS011;9636;47.382;8.480;2022-07-29T00:04:59;4.90;;;3.90;;
19006;SDS011;9636;47.382;8.480;2022-07-29T00:07:26;5.07;;;3.55;;
19006;SDS011;9636;47.382;8.480;2022-07-29T00:09:53;4.82;;;3.40;;
19006;SDS011;9636;47.382;8.480;2022-07-29T00:12:20;3.80;;;3.40;;
19006;SDS011;9636;47.382;8.480;2022-07-29T00:14:48;4.30;;;3.50;;
19006;SDS011;9636;47.382;8.480;2022-07-29T00:17:15;3.97;;;3.67;;
19006;SDS011;9636;47.382;8.480;2022-07-29T00:19:42;6.93;;;3.83;;
19006;SDS011;9636;47.382;8.480;2022-07-29T00:22:10;4.93;;;3.80;;
19006;SDS011;9636;47.382;8.480;2022-07-29T00:24:37;3.70;;;3.40;;
19006;SDS011;9636;47.382;8.480;2022-07-29T00:27:03;3.70;;;3.40;;
19006;SDS011;9636;47.382;8.480;2022-07-29T00:29:30;4.23;;;3.83;;
19006;SDS011;9636;47.382;8.480;2022-07-29T00:31:57;4.73;;;3.47;;
19006;SDS011;9636;47.382;8.480;2022-07-29T00:34:24;5.43;;;3.57;;
19006;SDS011;9636;47.382;8.480;2022-07-29T00:37:09;3.77;;;3.47;;
19006;SDS011;9636;47.382;8.480;2022-07-29T00:39:36;3.90;;;3.60;;
19006;SDS011;9636;47.382;8.480;2022-07-29T00:42:03;4.20;;;3.80;;
19006;SDS011;9636;47.382;8.480;2022-07-29T00:44:30;3.90;;;3.50;;
19006;SDS011;9636;47.382;8.480;2022-07-29T00:46:57;6.65;;;3.83;;
19006;SDS011;9636;47.382;8.480;2022-07-29T00:49:23;4.13;;;3.40;;
19006;SDS011;9636;47.382;8.480;2022-07-29T00:51:50;4.10;;;3.30;;
19006;SDS011;9636;47.382;8.480;2022-07-29T00:54:18;4.03;;;3.30;;
19006;SDS011;9636;47.382;8.480;2022-07-29T00:56:45;3.70;;;3.40;;
19006;SDS011;9636;47.382;8.480;2022-07-29T00:59:12;3.58;;;3.28;;
19006;SDS011;9636;47.382;8.480;2022-07-29T01:01:39;3.80;;;3.40;;
19006;SDS011;9636;47.382;8.480;2022-07-29T01:04:06;3.50;;;3.20;;
19006;SDS011;9636;47.382;8.480;2022-07-29T01:06:33;4.78;;;3.47;;
19006;SDS011;9636;47.382;8.480;2022-07-29T01:09:00;3.58;;;3.28;;
19006;SDS011;9636;47.382;8.480;2022-07-29T01:11:29;3.50;;;3.20;;
19006;SDS011;9636;47.382;8.480;2022-07-29T01:13:56;3.60;;;3.30;;
19006;SDS011;9636;47.382;8.480;2022-07-29T01:16:24;4.80;;;3.20;;
19006;SDS011;9636;47.382;8.480;2022-07-29T01:18:58;3.87;;;3.23;;
19006;SDS011;9636;47.382;8.480;2022-07-29T01:21:40;4.13;;;3.40;;
19006;SDS011;9636;47.382;8.480;2022-07-29T01:24:25;4.73;;;3.40;;
19006;SDS011;9636;47.382;8.480;2022-07-29T01:27:07;4.87;;;3.37;;
19006;SDS011;9636;47.382;8.480;2022-07-29T01:29:48;3.63;;;3.33;;
19006;SDS011;9636;47.382;8.480;2022-07-29T01:32:21;4.87;;;3.80;;
19006;SDS011;9636;47.382;8.480;2022-07-29T01:34:53;5.30;;;3.75;;
19006;SDS011;9636;47.382;8.480;2022-07-29T01:37:24;5.20;;;3.35;;
19006;SDS011;9636;47.382;8.480;2022-07-29T01:39:56;4.93;;;3.28;;
19006;SDS011;9636;47.382;8.480;2022-07-29T01:42:26;5.32;;;3.13;;
19006;SDS011;9636;47.382;8.480;2022-07-29T01:44:59;3.70;;;3.30;;
19006;SDS011;9636;47.382;8.480;2022-07-29T01:47:31;4.05;;;3.17;;
19006;SDS011;9636;47.382;8.480;2022-07-29T01:50:03;4.60;;;3.30;;
19006;SDS011;9636;47.382;8.480;2022-07-29T01:52:36;3.60;;;3.30;;
19006;SDS011;9636;47.382;8.480;2022-07-29T01:55:09;3.93;;;3.40;;
19006;SDS011;9636;47.382;8.480;2022-07-29T01:57:40;9.60;;;3.50;;
19006;SDS011;9636;47.382;8.480;2022-07-29T02:00:13;3.58;;;3.08;;
19006;SDS011;9636;47.382;8.480;2022-07-29T02:02:42;3.40;;;3.10;;
19006;SDS011;9636;47.382;8.480;2022-07-29T02:05:12;3.53;;;3.23;;
19006;SDS011;9636;47.382;8.480;2022-07-29T02:07:40;3.30;;;3.00;;
19006;SDS011;9636;47.382;8.480;2022-07-29T02:10:09;4.03;;;3.47;;
19006;SDS011;9636;47.382;8.480;2022-07-29T02:12:38;3.03;;;2.83;;
19006;SDS011;9636;47.382;8.480;2022-07-29T02:15:06;3.10;;;2.80;;
19006;SDS011;9636;47.382;8.480;2022-07-29T02:17:37;3.63;;;2.90;;
19006;SDS011;9636;47.382;8.480;2022-07-29T02:20:08;5.33;;;3.10;;
19006;SDS011;9636;47.382;8.480;2022-07-29T02:22:37;3.40;;;3.10;;
19006;SDS011;9636;47.382;8.480;2022-07-29T02:25:05;3.30;;;2.87;;
19006;SDS011;9636;47.382;8.480;2022-07-29T02:27:33;4.80;;;2.80;;
19006;SDS011;9636;47.382;8.480;2022-07-29T02:30:02;4.17;;;3.20;;
19006;SDS011;9636;47.382;8.480;2022-07-29T02:32:30;3.00;;;2.80;;
19006;SDS011;9636;47.382;8.480;2022-07-29T02:35:01;2.83;;;2.40;;
19006;SDS011;9636;47.382;8.480;2022-07-29T02:37:29;2.80;;;2.60;;
19006;SDS011;9636;47.382;8.480;2022-07-29T02:39:58;3.10;;;2.80;;
19006;SDS011;9636;47.382;8.480;2022-07-29T02:42:26;3.80;;;2.97;;
19006;SDS011;9636;47.382;8.480;2022-07-29T02:44:53;3.20;;;2.90;;
19006;SDS011;9636;47.382;8.480;2022-07-29T02:47:21;4.43;;;3.10;;
19006;SDS011;9636;47.382;8.480;2022-07-29T02:49:53;6.73;;;3.23;;
19006;SDS011;9636;47.382;8.480;2022-07-29T02:52:26;3.90;;;2.90;;
19006;SDS011;9636;47.382;8.480;2022-07-29T02:54:55;3.20;;;2.90;;
19006;SDS011;9636;47.382;8.480;2022-07-29T02:57:31;3.30;;;3.00;;
19006;SDS011;9636;47.382;8.480;2022-07-29T03:00:04;3.17;;;2.87;;
19006;SDS011;9636;47.382;8.480;2022-07-29T03:02:34;3.07;;;2.77;;
19006;SDS011;9636;47.382;8.480;2022-07-29T03:05:04;3.13;;;2.83;;
19006;SDS011;9636;47.382;8.480;2022-07-29T03:07:35;3.00;;;2.80;;
19006;SDS011;9636;47.382;8.480;2022-07-29T03:10:04;3.30;;;2.83;;
19006;SDS011;9636;47.382;8.480;2022-07-29T03:12:33;3.22;;;2.92;;
19006;SDS011;9636;47.382;8.480;2022-07-29T03:15:01;3.47;;;3.17;;
19006;SDS011;9636;47.382;8.480;2022-07-29T03:17:28;4.50;;;3.30;;
19006;SDS011;9636;47.382;8.480;2022-07-29T03:19:56;4.25;;;3.10;;
19006;SDS011;9636;47.382;8.480;2022-07-29T03:22:24;4.30;;;3.00;;
19006;SDS011;9636;47.382;8.480;2022-07-29T03:24:53;4.30;;;3.13;;
19006;SDS011;9636;47.382;8.480;2022-07-29T03:27:20;6.47;;;3.30;;
19006;SDS011;9636;47.382;8.480;2022-07-29T03:29:47;3.50;;;3.20;;
19006;SDS011;9636;47.382;8.480;2022-07-29T03:32:14;3.72;;;3.42;;
19006;SDS011;9636;47.382;8.480;2022-07-29T03:34:41;3.42;;;3.13;;
19006;SDS011;9636;47.382;8.480;2022-07-29T03:37:07;3.90;;;3.10;;
19006;SDS011;9636;47.382;8.480;2022-07-29T03:39:36;6.10;;;3.42;;
19006;SDS011;9636;47.382;8.480;2022-07-29T03:42:08;4.43;;;3.37;;
19006;SDS011;9636;47.382;8.480;2022-07-29T03:44:38;3.90;;;3.50;;
19006;SDS011;9636;47.382;8.480;2022-07-29T03:47:06;5.40;;;3.70;;
19006;SDS011;9636;47.382;8.480;2022-07-29T03:49:35;5.13;;;3.90;;
19006;SDS011;9636;47.382;8.480;2022-07-29T03:52:03;5.67;;;3.40;;
19006;SDS011;9636;47.382;8.480;2022-07-29T03:54:31;4.70;;;3.50;;
19006;SDS011;9636;47.382;8.480;2022-07-29T03:56:58;5.33;;;3.80;;
19006;SDS011;9636;47.382;8.480;2022-07-29T03:59:28;4.60;;;3.67;;
19006;SDS011;9636;47.382;8.480;2022-07-29T04:01:58;5.73;;;3.90;;
19006;SDS011;9636;47.382;8.480;2022-07-29T04:04:26;4.50;;;3.83;;
19006;SDS011;9636;47.382;8.480;2022-07-29T04:06:53;5.30;;;3.53;;
19006;SDS011;9636;47.382;8.480;2022-07-29T04:09:19;3.50;;;3.20;;
19006;SDS011;9636;47.382;8.480;2022-07-29T04:11:46;3.67;;;3.37;;
19006;SDS011;9636;47.382;8.480;2022-07-29T04:14:13;3.70;;;3.30;;
19006;SDS011;9636;47.382;8.480;2022-07-29T04:16:41;4.83;;;3.20;;
19006;SDS011;9636;47.382;8.480;2022-07-29T04:19:08;3.63;;;3.10;;
19006;SDS011;9636;47.382;8.480;2022-07-29T04:21:36;3.67;;;3.33;;
19006;SDS011;9636;47.382;8.480;2022-07-29T04:24:03;8.77;;;6.30;;
19006;SDS011;9636;47.382;8.480;2022-07-29T04:26:31;6.35;;;4.70;;
19006;SDS011;9636;47.382;8.480;2022-07-29T04:28:57;5.30;;;3.70;;
19006;SDS011;9636;47.382;8.480;2022-07-29T04:31:24;4.20;;;3.75;;
19006;SDS011;9636;47.382;8.480;2022-07-29T04:33:52;4.50;;;3.40;;
19006;SDS011;9636;47.382;8.480;2022-07-29T04:36:19;5.00;;;3.10;;
19006;SDS011;9636;47.382;8.480;2022-07-29T04:38:46;4.20;;;3.40;;
19006;SDS011;9636;47.382;8.480;2022-07-29T04:41:13;6.78;;;3.50;;
19006;SDS011;9636;47.382;8.480;2022-07-29T04:43:39;3.77;;;3.10;;
19006;SDS011;9636;47.382;8.480;2022-07-29T04:46:06;3.47;;;3.17;;
19006;SDS011;9636;47.382;8.480;2022-07-29T04:48:33;5.30;;;3.40;;
19006;SDS011;9636;47.382;8.480;2022-07-29T04:51:01;3.47;;;3.17;;
19006;SDS011;9636;47.382;8.480;2022-07-29T04:53:28;4.25;;;3.30;;
19006;SDS011;9636;47.382;8.480;2022-07-29T04:55:55;5.55;;;3.28;;
19006;SDS011;9636;47.382;8.480;2022-07-29T04:58:21;5.70;;;3.50;;
19006;SDS011;9636;47.382;8.480;2022-07-29T05:00:49;3.60;;;3.25;;
19006;SDS011;9636;47.382;8.480;2022-07-29T05:03:16;4.75;;;3.25;;
19006;SDS011;9636;47.382;8.480;2022-07-29T05:05:42;3.78;;;3.40;;
19006;SDS011;9636;47.382;8.480;2022-07-29T05:08:11;4.10;;;3.13;;
19006;SDS011;9636;47.382;8.480;2022-07-29T05:13:30;3.80;;;3.20;;
19006;SDS011;9636;47.382;8.480;2022-07-29T05:15:57;4.00;;;3.23;;
19006;SDS011;9636;47.382;8.480;2022-07-29T05:18:24;3.83;;;3.05;;
19006;SDS011;9636;47.382;8.480;2022-07-29T05:20:51;5.10;;;3.10;;
19006;SDS011;9636;47.382;8.480;2022-07-29T05:23:19;4.85;;;3.17;;
19006;SDS011;9636;47.382;8.480;2022-07-29T05:25:46;3.35;;;3.10;;
19006;SDS011;9636;47.382;8.480;2022-07-29T05:28:13;6.20;;;3.30;;
19006;SDS011;9636;47.382;8.480;2022-07-29T05:30:40;3.70;;;3.30;;
19006;SDS011;9636;47.382;8.480;2022-07-29T05:33:09;3.33;;;3.03;;
19006;SDS011;9636;47.382;8.480;2022-07-29T05:35:36;3.13;;;2.65;;
19006;SDS011;9636;47.382;8.480;2022-07-29T05:38:03;4.27;;;2.70;;
19006;SDS011;9636;47.382;8.480;2022-07-29T05:40:31;3.17;;;2.88;;
19006;SDS011;9636;47.382;8.480;2022-07-29T05:43:01;3.60;;;3.30;;
19006;SDS011;9636;47.382;8.480;2022-07-29T05:45:58;3.55;;;3.25;;
19006;SDS011;9636;47.382;8.480;2022-07-29T05:48:18;3.27;;;3.00;;
19006;SDS011;9636;47.382;8.480;2022-07-29T05:50:47;3.95;;;3.00;;
19006;SDS011;9636;47.382;8.480;2022-07-29T05:53:17;4.78;;;3.42;;
19006;SDS011;9636;47.382;8.480;2022-07-29T05:55:45;3.67;;;2.70;;
19006;SDS011;9636;47.382;8.480;2022-07-29T05:58:17;4.22;;;3.22;;
19006;SDS011;9636;47.382;8.480;2022-07-29T06:00:47;3.35;;;2.90;;
19006;SDS011;9636;47.382;8.480;2022-07-29T06:03:15;3.30;;;3.03;;
19006;SDS011;9636;47.382;8.480;2022-07-29T06:05:42;3.03;;;2.72;;
19006;SDS011;9636;47.382;8.480;2022-07-29T06:08:23;3.25;;;2.95;;
19006;SDS011;9636;47.382;8.480;2022-07-29T06:17:45;4.00;;;3.10;;
19006;SDS011;9636;47.382;8.480;2022-07-29T06:21:20;3.53;;;3.22;;
19006;SDS011;9636;47.382;8.480;2022-07-29T06:23:21;6.13;;;3.60;;
19006;SDS011;9636;47.382;8.480;2022-07-29T06:28:47;3.97;;;3.58;;
19006;SDS011;9636;47.382;8.480;2022-07-29T06:31:31;4.38;;;3.67;;
19006;SDS011;9636;47.382;8.480;2022-07-29T06:40:44;4.25;;;3.25;;
19006;SDS011;9636;47.382;8.480;2022-07-29T06:43:44;7.65;;;3.55;;
19006;SDS011;9636;47.382;8.480;2022-07-29T06:46:20;6.43;;;3.50;;
19006;SDS011;9636;47.382;8.480;2022-07-29T06:48:50;4.55;;;3.50;;
19006;SDS011;9636;47.382;8.480;2022-07-29T06:51:18;10.65;;;4.75;;
19006;SDS011;9636;47.382;8.480;2022-07-29T06:53:53;6.70;;;4.10;;
19006;SDS011;9636;47.382;8.480;2022-07-29T06:56:23;5.68;;;4.05;;
19006;SDS011;9636;47.382;8.480;2022-07-29T06:58:50;9.55;;;4.32;;
19006;SDS011;9636;47.382;8.480;2022-07-29T07:01:16;7.18;;;4.30;;
19006;SDS011;9636;47.382;8.480;2022-07-29T07:03:44;9.77;;;4.30;;
19006;SDS011;9636;47.382;8.480;2022-07-29T07:06:11;5.25;;;4.15;;
19006;SDS011;9636;47.382;8.480;2022-07-29T07:08:38;6.50;;;4.15;;
19006;SDS011;9636;47.382;8.480;2022-07-29T07:11:06;5.80;;;4.28;;
19006;SDS011;9636;47.382;8.480;2022-07-29T07:13:34;10.00;;;4.73;;
19006;SDS011;9636;47.382;8.480;2022-07-29T07:16:01;6.17;;;4.07;;
19006;SDS011;9636;47.382;8.480;2022-07-29T07:18:28;11.53;;;4.83;;
19006;SDS011;9636;47.382;8.480;2022-07-29T07:20:55;7.13;;;5.40;;
19006;SDS011;9636;47.382;8.480;2022-07-29T07:23:23;7.45;;;4.95;;
19006;SDS011;9636;47.382;8.480;2022-07-29T07:25:52;5.38;;;4.88;;
19006;SDS011;9636;47.382;8.480;2022-07-29T07:28:20;5.85;;;4.68;;
19006;SDS011;9636;47.382;8.480;2022-07-29T07:30:47;6.18;;;5.18;;
19006;SDS011;9636;47.382;8.480;2022-07-29T07:33:14;5.72;;;4.68;;
19006;SDS011;9636;47.382;8.480;2022-07-29T07:35:41;5.57;;;4.82;;
19006;SDS011;9636;47.382;8.480;2022-07-29T07:38:09;5.47;;;4.68;;
19006;SDS011;9636;47.382;8.480;2022-07-29T07:40:36;5.00;;;4.43;;
19006;SDS011;9636;47.382;8.480;2022-07-29T07:43:03;5.03;;;4.18;;
19006;SDS011;9636;47.382;8.480;2022-07-29T07:45:31;6.70;;;4.55;;
19006;SDS011;9636;47.382;8.480;2022-07-29T07:47:58;6.25;;;4.68;;
19006;SDS011;9636;47.382;8.480;2022-07-29T07:50:27;5.63;;;4.95;;
19006;SDS011;9636;47.382;8.480;2022-07-29T07:52:54;5.82;;;5.00;;
19006;SDS011;9636;47.382;8.480;2022-07-29T07:55:23;5.63;;;4.55;;
19006;SDS011;9636;47.382;8.480;2022-07-29T07:57:50;7.70;;;5.05;;
19006;SDS011;9636;47.382;8.480;2022-07-29T08:00:17;5.32;;;4.82;;
19006;SDS011;9636;47.382;8.480;2022-07-29T08:02:45;8.18;;;4.97;;
19006;SDS011;9636;47.382;8.480;2022-07-29T08:05:12;5.70;;;4.87;;
19006;SDS011;9636;47.382;8.480;2022-07-29T08:07:41;5.80;;;4.47;;
19006;SDS011;9636;47.382;8.480;2022-07-29T08:10:09;5.22;;;4.47;;
19006;SDS011;9636;47.382;8.480;2022-07-29T08:12:36;5.45;;;4.90;;
19006;SDS011;9636;47.382;8.480;2022-07-29T08:15:03;6.28;;;4.55;;
19006;SDS011;9636;47.382;8.480;2022-07-29T08:17:32;5.82;;;3.47;;
19006;SDS011;9636;47.382;8.480;2022-07-29T08:20:01;4.72;;;4.32;;
19006;SDS011;9636;47.382;8.480;2022-07-29T08:22:30;5.25;;;4.75;;
19006;SDS011;9636;47.382;8.480;2022-07-29T08:24:57;5.57;;;4.97;;
19006;SDS011;9636;47.382;8.480;2022-07-29T08:27:24;6.05;;;4.75;;
19006;SDS011;9636;47.382;8.480;2022-07-29T08:29:51;6.72;;;4.72;;
19006;SDS011;9636;47.382;8.480;2022-07-29T08:32:18;5.97;;;5.37;;
19006;SDS011;9636;47.382;8.480;2022-07-29T08:34:45;6.37;;;5.77;;
19006;SDS011;9636;47.382;8.480;2022-07-29T08:37:13;6.43;;;5.03;;
19006;SDS011;9636;47.382;8.480;2022-07-29T08:39:40;8.48;;;5.55;;
19006;SDS011;9636;47.382;8.480;2022-07-29T08:42:07;6.80;;;4.95;;
19006;SDS011;9636;47.382;8.480;2022-07-29T08:44:34;6.50;;;4.88;;
19006;SDS011;9636;47.382;8.480;2022-07-29T08:47:02;5.18;;;4.55;;
19006;SDS011;9636;47.382;8.480;2022-07-29T08:49:29;7.47;;;4.85;;
19006;SDS011;9636;47.382;8.480;2022-07-29T08:51:56;5.18;;;4.50;;
19006;SDS011;9636;47.382;8.480;2022-07-29T08:54:25;6.47;;;4.82;;
19006;SDS011;9636;47.382;8.480;2022-07-29T08:56:54;4.68;;;3.97;;
19006;SDS011;9636;47.382;8.480;2022-07-29T08:59:22;4.35;;;3.95;;
19006;SDS011;9636;47.382;8.480;2022-07-29T09:01:53;4.03;;;3.70;;
19006;SDS011;9636;47.382;8.480;2022-07-29T09:04:20;4.70;;;4.13;;
19006;SDS011;9636;47.382;8.480;2022-07-29T09:06:49;3.90;;;3.60;;
19006;SDS011;9636;47.382;8.480;2022-07-29T09:09:19;5.30;;;3.40;;
19006;SDS011;9636;47.382;8.480;2022-07-29T09:11:48;4.00;;;3.50;;
19006;SDS011;9636;47.382;8.480;2022-07-29T09:14:15;4.40;;;3.70;;
19006;SDS011;9636;47.382;8.480;2022-07-29T09:16:49;10.48;;;4.00;;
19006;SDS011;9636;47.382;8.480;2022-07-29T09:19:22;4.72;;;3.90;;
19006;SDS011;9636;47.382;8.480;2022-07-29T09:21:51;4.10;;;3.70;;
19006;SDS011;9636;47.382;8.480;2022-07-29T09:24:23;4.22;;;3.67;;
19006;SDS011;9636;47.382;8.480;2022-07-29T09:26:52;3.80;;;3.22;;
19006;SDS011;9636;47.382;8.480;2022-07-29T09:29:19;3.80;;;3.50;;
19006;SDS011;9636;47.382;8.480;2022-07-29T09:31:47;5.53;;;3.60;;
19006;SDS011;9636;47.382;8.480;2022-07-29T09:34:16;3.90;;;3.50;;
19006;SDS011;9636;47.382;8.480;2022-07-29T09:36:47;4.75;;;3.72;;
19006;SDS011;9636;47.382;8.480;2022-07-29T09:39:15;4.63;;;3.88;;
19006;SDS011;9636;47.382;8.480;2022-07-29T09:41:54;6.32;;;4.03;;
19006;SDS011;9636;47.382;8.480;2022-07-29T09:44:23;5.90;;;4.00;;
19006;SDS011;9636;47.382;8.480;2022-07-29T09:46:54;5.68;;;3.70;;
19006;SDS011;9636;47.382;8.480;2022-07-29T09:49:30;4.75;;;3.75;;
19006;SDS011;9636;47.382;8.480;2022-07-29T09:52:02;4.53;;;4.10;;
19006;SDS011;9636;47.382;8.480;2022-07-29T09:54:31;4.40;;;4.00;;
19006;SDS011;9636;47.382;8.480;2022-07-29T09:57:03;4.43;;;4.03;;
19006;SDS011;9636;47.382;8.480;2022-07-29T09:59:31;6.18;;;4.30;;
19006;SDS011;9636;47.382;8.480;2022-07-29T10:01:58;5.63;;;4.28;;
19006;SDS011;9636;47.382;8.480;2022-07-29T10:04:35;4.80;;;4.28;;
19006;SDS011;9636;47.382;8.480;2022-07-29T10:07:04;6.53;;;5.05;;
19006;SDS011;9636;47.382;8.480;2022-07-29T10:09:31;4.55;;;3.90;;
19006;SDS011;9636;47.382;8.480;2022-07-29T10:12:06;7.38;;;5.03;;
19006;SDS011;9636;47.382;8.480;2022-07-29T10:14:36;4.70;;;4.28;;
19006;SDS011;9636;47.382;8.480;2022-07-29T10:17:04;4.38;;;4.00;;
19006;SDS011;9636;47.382;8.480;2022-07-29T10:19:32;5.35;;;4.85;;
19006;SDS011;9636;47.382;8.480;2022-07-29T10:22:01;4.60;;;4.05;;
19006;SDS011;9636;47.382;8.480;2022-07-29T10:24:29;4.43;;;4.03;;
19006;SDS011;9636;47.382;8.480;2022-07-29T10:26:58;5.25;;;4.25;;
19006;SDS011;9636;47.382;8.480;2022-07-29T10:29:28;5.32;;;4.82;;
19006;SDS011;9636;47.382;8.480;2022-07-29T10:35:08;6.93;;;4.22;;
19006;SDS011;9636;47.382;8.480;2022-07-29T10:40:40;6.65;;;4.72;;
19006;SDS011;9636;47.382;8.480;2022-07-29T10:43:35;4.53;;;4.13;;
19006;SDS011;9636;47.382;8.480;2022-07-29T10:46:08;5.47;;;4.35;;
19006;SDS011;9636;47.382;8.480;2022-07-29T10:48:38;4.47;;;4.07;;
19006;SDS011;9636;47.382;8.480;2022-07-29T10:51:52;6.93;;;4.68;;
19006;SDS011;9636;47.382;8.480;2022-07-29T10:54:40;5.18;;;4.22;;
19006;SDS011;9636;47.382;8.480;2022-07-29T10:57:16;5.75;;;4.10;;
19006;SDS011;9636;47.382;8.480;2022-07-29T10:59:45;4.78;;;3.92;;
19006;SDS011;9636;47.382;8.480;2022-07-29T11:05:00;4.00;;;3.60;;
19006;SDS011;9636;47.382;8.480;2022-07-29T11:07:29;4.38;;;3.90;;
19006;SDS011;9636;47.382;8.480;2022-07-29T11:12:49;4.13;;;3.72;;
19006;SDS011;9636;47.382;8.480;2022-07-29T11:15:17;4.60;;;3.80;;
19006;SDS011;9636;47.382;8.480;2022-07-29T11:18:05;3.20;;;3.00;;
19006;SDS011;9636;47.382;8.480;2022-07-29T11:20:36;4.22;;;3.30;;
19006;SDS011;9636;47.382;8.480;2022-07-29T11:23:17;4.15;;;3.80;;
19006;SDS011;9636;47.382;8.480;2022-07-29T11:25:45;3.65;;;3.35;;
19006;SDS011;9636;47.382;8.480;2022-07-29T11:28:13;3.75;;;3.28;;
19006;SDS011;9636;47.382;8.480;2022-07-29T11:30:48;4.47;;;3.45;;
19006;SDS011;9636;47.382;8.480;2022-07-29T11:33:28;3.25;;;3.00;;
19006;SDS011;9636;47.382;8.480;2022-07-29T11:36:10;3.67;;;3.38;;
19006;SDS011;9636;47.382;8.480;2022-07-29T11:38:38;5.00;;;3.13;;
19006;SDS011;9636;47.382;8.480;2022-07-29T11:41:24;5.65;;;3.67;;
19006;SDS011;9636;47.382;8.480;2022-07-29T11:43:54;4.18;;;3.40;;
19006;SDS011;9636;47.382;8.480;2022-07-29T11:49:09;4.38;;;3.38;;
19006;SDS011;9636;47.382;8.480;2022-07-29T11:51:38;4.13;;;3.42;;
19006;SDS011;9636;47.382;8.480;2022-07-29T11:54:07;6.18;;;3.05;;
19006;SDS011;9636;47.382;8.480;2022-07-29T11:56:39;3.67;;;3.25;;
19006;SDS011;9636;47.382;8.480;2022-07-29T11:59:10;4.43;;;3.00;;
19006;SDS011;9636;47.382;8.480;2022-07-29T12:01:51;3.53;;;3.22;;
19006;SDS011;9636;47.382;8.480;2022-07-29T12:04:18;6.68;;;3.22;;
19006;SDS011;9636;47.382;8.480;2022-07-29T12:06:49;3.78;;;3.47;;
19006;SDS011;9636;47.382;8.480;2022-07-29T12:09:16;6.43;;;3.15;;
19006;SDS011;9636;47.382;8.480;2022-07-29T12:11:43;4.05;;;3.50;;
19006;SDS011;9636;47.382;8.480;2022-07-29T12:14:23;4.82;;;3.80;;
19006;SDS011;9636;47.382;8.480;2022-07-29T12:16:51;4.38;;;3.97;;
19006;SDS011;9636;47.382;8.480;2022-07-29T12:19:18;4.30;;;3.53;;
19006;SDS011;9636;47.382;8.480;2022-07-29T12:21:45;4.65;;;4.25;;
19006;SDS011;9636;47.382;8.480;2022-07-29T12:24:13;7.72;;;4.25;;
19006;SDS011;9636;47.382;8.480;2022-07-29T12:26:49;4.25;;;3.85;;
19006;SDS011;9636;47.382;8.480;2022-07-29T12:29:16;5.03;;;4.53;;
19006;SDS011;9636;47.382;8.480;2022-07-29T12:31:44;4.93;;;4.50;;
19006;SDS011;9636;47.382;8.480;2022-07-29T12:34:11;6.43;;;4.75;;
19006;SDS011;9636;47.382;8.480;2022-07-29T12:36:39;7.03;;;4.50;;
19006;SDS011;9636;47.382;8.480;2022-07-29T12:39:07;6.43;;;4.30;;
19006;SDS011;9636;47.382;8.480;2022-07-29T12:41:36;6.72;;;4.72;;
19006;SDS011;9636;47.382;8.480;2022-07-29T12:44:04;5.20;;;4.70;;
19006;SDS011;9636;47.382;8.480;2022-07-29T12:46:30;6.95;;;5.32;;
19006;SDS011;9636;47.382;8.480;2022-07-29T12:48:57;5.93;;;5.05;;
19006;SDS011;9636;47.382;8.480;2022-07-29T12:51:28;5.15;;;4.60;;
19006;SDS011;9636;47.382;8.480;2022-07-29T12:54:02;5.07;;;4.68;;
19006;SDS011;9636;47.382;8.480;2022-07-29T12:56:32;5.80;;;5.30;;
19006;SDS011;9636;47.382;8.480;2022-07-29T12:59:00;5.07;;;4.55;;
19006;SDS011;9636;47.382;8.480;2022-07-29T13:01:40;6.15;;;4.63;;
19006;SDS011;9636;47.382;8.480;2022-07-29T13:04:07;5.15;;;4.60;;
19006;SDS011;9636;47.382;8.480;2022-07-29T13:06:36;7.25;;;4.22;;
19006;SDS011;9636;47.382;8.480;2022-07-29T13:09:05;4.90;;;4.30;;
19006;SDS011;9636;47.382;8.480;2022-07-29T13:11:34;4.18;;;3.88;;
19006;SDS011;9636;47.382;8.480;2022-07-29T13:14:03;4.70;;;4.30;;
19006;SDS011;9636;47.382;8.480;2022-07-29T13:16:30;5.35;;;4.35;;
19006;SDS011;9636;47.382;8.480;2022-07-29T13:19:07;5.88;;;4.82;;
19006;SDS011;9636;47.382;8.480;2022-07-29T13:21:36;13.10;;;7.82;;
19006;SDS011;9636;47.382;8.480;2022-07-29T13:24:04;18.90;;;9.13;;
19006;SDS011;9636;47.382;8.480;2022-07-29T13:26:32;17.88;;;9.35;;
19006;SDS011;9636;47.382;8.480;2022-07-29T13:28:59;13.80;;;8.77;;
19006;SDS011;9636;47.382;8.480;2022-07-29T13:31:27;11.15;;;7.82;;
19006;SDS011;9636;47.382;8.480;2022-07-29T13:33:54;6.63;;;5.25;;
19006;SDS011;9636;47.382;8.480;2022-07-29T13:36:21;8.20;;;5.10;;
19006;SDS011;9636;47.382;8.480;2022-07-29T13:38:48;7.70;;;5.88;;
19006;SDS011;9636;47.382;8.480;2022-07-29T13:41:15;12.90;;;6.90;;
19006;SDS011;9636;47.382;8.480;2022-07-29T13:43:43;7.90;;;7.10;;
19006;SDS011;9636;47.382;8.480;2022-07-29T13:46:10;9.10;;;8.13;;
19006;SDS011;9636;47.382;8.480;2022-07-29T13:48:41;9.13;;;8.10;;
19006;SDS011;9636;47.382;8.480;2022-07-29T13:51:07;10.43;;;8.18;;
19006;SDS011;9636;47.382;8.480;2022-07-29T13:53:34;9.23;;;8.15;;
19006;SDS011;9636;47.382;8.480;2022-07-29T13:56:01;9.88;;;8.88;;
19006;SDS011;9636;47.382;8.480;2022-07-29T13:58:30;10.18;;;8.93;;
19006;SDS011;9636;47.382;8.480;2022-07-29T14:00:57;15.02;;;10.68;;
19006;SDS011;9636;47.382;8.480;2022-07-29T14:03:24;10.93;;;9.90;;
19006;SDS011;9636;47.382;8.480;2022-07-29T14:05:53;13.90;;;11.43;;
19006;SDS011;9636;47.382;8.480;2022-07-29T14:08:21;13.07;;;11.50;;
19006;SDS011;9636;47.382;8.480;2022-07-29T14:10:48;12.02;;;10.25;;
19006;SDS011;9636;47.382;8.480;2022-07-29T14:16:29;14.63;;;10.40;;
19006;SDS011;9636;47.382;8.480;2022-07-29T14:18:57;12.60;;;11.27;;
19006;SDS011;9636;47.382;8.480;2022-07-29T14:21:26;13.02;;;11.13;;
19006;SDS011;9636;47.382;8.480;2022-07-29T14:23:52;17.13;;;10.90;;
19006;SDS011;9636;47.382;8.480;2022-07-29T14:26:19;12.98;;;11.10;;
19006;SDS011;9636;47.382;8.480;2022-07-29T14:28:46;14.35;;;10.68;;
19006;SDS011;9636;47.382;8.480;2022-07-29T14:31:13;12.77;;;10.80;;
19006;SDS011;9636;47.382;8.480;2022-07-29T14:33:46;11.75;;;10.40;;
19006;SDS011;9636;47.382;8.480;2022-07-29T14:36:13;10.73;;;9.65;;
19006;SDS011;9636;47.382;8.480;2022-07-29T14:38:41;10.13;;;9.13;;
19006;SDS011;9636;47.382;8.480;2022-07-29T14:41:09;9.88;;;8.85;;
19006;SDS011;9636;47.382;8.480;2022-07-29T14:43:36;10.18;;;8.30;;
19006;SDS011;9636;47.382;8.480;2022-07-29T14:46:03;10.45;;;8.55;;
19006;SDS011;9636;47.382;8.480;2022-07-29T14:48:32;14.07;;;8.60;;
19006;SDS011;9636;47.382;8.480;2022-07-29T14:50:59;9.35;;;8.32;;
19006;SDS011;9636;47.382;8.480;2022-07-29T14:53:25;8.40;;;7.32;;
19006;SDS011;9636;47.382;8.480;2022-07-29T14:55:54;8.73;;;7.80;;
19006;SDS011;9636;47.382;8.480;2022-07-29T14:58:21;9.10;;;8.13;;
19006;SDS011;9636;47.382;8.480;2022-07-29T15:00:50;9.47;;;7.97;;
19006;SDS011;9636;47.382;8.480;2022-07-29T15:06:27;9.32;;;8.38;;
19006;SDS011;9636;47.382;8.480;2022-07-29T15:09:08;9.73;;;7.47;;
19006;SDS011;9636;47.382;8.480;2022-07-29T15:14:38;10.85;;;7.78;;
19006;SDS011;9636;47.382;8.480;2022-07-29T15:17:05;8.57;;;7.77;;
19006;SDS011;9636;47.382;8.480;2022-07-29T15:19:34;10.37;;;8.50;;
19006;SDS011;9636;47.382;8.480;2022-07-29T15:37:49;8.73;;;7.80;;
19006;SDS011;9636;47.382;8.480;2022-07-29T15:40:19;8.70;;;7.75;;
19006;SDS011;9636;47.382;8.480;2022-07-29T15:42:46;8.82;;;7.88;;
19006;SDS011;9636;47.382;8.480;2022-07-29T15:45:14;9.25;;;8.20;;
19006;SDS011;9636;47.382;8.480;2022-07-29T15:47:41;8.98;;;8.07;;
19006;SDS011;9636;47.382;8.480;2022-07-29T15:50:07;8.43;;;7.63;;
19006;SDS011;9636;47.382;8.480;2022-07-29T15:52:39;9.50;;;7.50;;
19006;SDS011;9636;47.382;8.480;2022-07-29T15:55:07;8.18;;;7.38;;
19006;SDS011;9636;47.382;8.480;2022-07-29T15:57:34;9.13;;;7.45;;
19006;SDS011;9636;47.382;8.480;2022-07-29T16:00:01;9.45;;;7.93;;
19006;SDS011;9636;47.382;8.480;2022-07-29T16:02:36;9.70;;;7.88;;
19006;SDS011;9636;47.382;8.480;2022-07-29T16:05:05;12.15;;;7.22;;
19006;SDS011;9636;47.382;8.480;2022-07-29T16:07:32;8.40;;;6.75;;
19006;SDS011;9636;47.382;8.480;2022-07-29T16:09:59;8.82;;;6.32;;
19006;SDS011;9636;47.382;8.480;2022-07-29T16:12:45;7.45;;;6.60;;